createdAt,value
2023-04-18T00:02:19.655Z,32.25
2023-04-18T00:04:50.589Z,31.67
2023-04-18T00:07:21.111Z,31.98
2023-04-18T00:09:53.125Z,31.65
2023-04-18T00:12:23.452Z,32.78
2023-04-18T00:14:54.009Z,31.08
2023-04-18T00:17:26.753Z,32.88
2023-04-18T00:19:58.473Z,32.65
2023-04-18T00:22:28.656Z,31.88
2023-04-18T00:25:01.218Z,34.40
2023-04-18T00:27:31.486Z,34.15
2023-04-18T00:30:02.071Z,32.90
2023-04-18T00:32:32.271Z,31.25
2023-04-18T00:35:04.289Z,31.52
2023-04-18T00:37:34.496Z,30.88
2023-04-18T00:40:08.268Z,31.02
2023-04-18T00:45:11.590Z,31.52
2023-04-18T00:47:42.054Z,30.15
2023-04-18T00:50:14.475Z,32.67
2023-04-18T00:52:47.151Z,33.20
2023-04-18T00:55:20.051Z,31.30
2023-04-18T00:57:50.218Z,33.13
2023-04-18T01:00:21.152Z,34.67
2023-04-18T01:02:53.521Z,33.47
2023-04-18T01:05:24.884Z,33.75
2023-04-18T01:07:58.832Z,31.60
2023-04-18T01:10:31.966Z,32.47
2023-04-18T01:13:16.676Z,30.52
2023-04-18T01:15:49.533Z,33.15
2023-04-18T01:18:20.957Z,34.13
2023-04-18T01:20:54.879Z,32.88
2023-04-18T01:23:25.042Z,32.65
2023-04-18T01:25:57.017Z,34.47
2023-04-18T01:28:29.994Z,32.60
2023-04-18T01:31:00.546Z,33.05
2023-04-18T01:33:30.952Z,31.08
2023-04-18T01:36:01.557Z,33.08
2023-04-18T01:38:34.426Z,32.57
2023-04-18T01:41:06.495Z,32.40
2023-04-18T01:43:36.762Z,29.13
2023-04-18T01:46:07.701Z,30.48
2023-04-18T01:48:38.738Z,30.83
2023-04-18T01:51:09.964Z,31.42
2023-04-18T01:53:41.982Z,32.60
2023-04-18T01:56:14.364Z,30.70
2023-04-18T01:58:46.088Z,29.65
2023-04-18T02:01:17.164Z,30.42
2023-04-18T02:03:47.869Z,29.83
2023-04-18T02:06:20.168Z,29.23
2023-04-18T02:08:54.837Z,30.20
2023-04-18T02:11:31.205Z,31.33
2023-04-18T02:14:02.095Z,30.87
2023-04-18T02:16:32.723Z,28.15
2023-04-18T02:19:04.604Z,28.58
2023-04-18T02:21:35.321Z,27.58
2023-04-18T02:24:05.996Z,28.05
2023-04-18T02:26:38.210Z,28.75
2023-04-18T02:29:08.686Z,27.08
2023-04-18T02:31:41.321Z,28.50
2023-04-18T02:34:12.144Z,28.97
2023-04-18T02:36:43.821Z,26.67
2023-04-18T02:39:14.430Z,26.30
2023-04-18T02:41:47.955Z,27.92
2023-04-18T02:44:19.114Z,27.13
2023-04-18T02:46:50.174Z,27.23
2023-04-18T02:49:20.678Z,27.95
2023-04-18T02:51:51.844Z,29.35
2023-04-18T02:54:22.776Z,28.92
2023-04-18T02:57:14.703Z,29.00
2023-04-18T03:03:05.909Z,30.30
2023-04-18T03:05:50.361Z,29.88
2023-04-18T03:08:20.927Z,27.75
2023-04-18T03:10:51.535Z,26.95
2023-04-18T03:13:27.503Z,29.67
2023-04-18T03:15:58.550Z,29.40
2023-04-18T03:18:31.614Z,30.55
2023-04-18T03:21:07.850Z,28.40
2023-04-18T03:23:40.005Z,29.75
2023-04-18T03:26:13.979Z,27.55
2023-04-18T03:28:47.610Z,28.70
2023-04-18T03:33:51.772Z,30.58
2023-04-18T03:36:25.513Z,31.42
2023-04-18T03:38:58.072Z,29.23
2023-04-18T03:41:30.040Z,30.05
2023-04-18T03:44:02.761Z,32.80
2023-04-18T03:46:37.857Z,31.33
2023-04-18T03:49:09.355Z,31.83
2023-04-18T03:51:47.916Z,31.52
2023-04-18T03:54:19.312Z,30.95
2023-04-18T03:56:49.867Z,33.10
2023-04-18T03:59:22.229Z,33.45
2023-04-18T04:01:54.489Z,34.55
2023-04-18T04:04:26.446Z,32.50
2023-04-18T04:06:57.171Z,33.45
2023-04-18T04:09:28.141Z,33.72
2023-04-18T04:11:58.704Z,33.03
2023-04-18T04:14:31.219Z,32.65
2023-04-18T04:17:01.822Z,35.15
2023-04-18T04:19:33.882Z,32.80
2023-04-18T04:22:14.071Z,33.25
2023-04-18T04:24:46.934Z,32.38
2023-04-18T04:27:21.154Z,33.78
2023-04-18T04:29:54.162Z,33.08
2023-04-18T04:32:25.522Z,33.75
2023-04-18T04:34:57.714Z,34.03
2023-04-18T04:37:29.480Z,31.77
2023-04-18T04:40:13.485Z,32.97
2023-04-18T04:42:56.960Z,33.72
2023-04-18T04:45:36.428Z,30.75
2023-04-18T04:48:07.792Z,30.33
2023-04-18T04:50:41.774Z,30.02
2023-04-18T04:53:14.742Z,29.95
2023-04-18T04:55:45.884Z,31.23
2023-04-18T04:58:17.214Z,33.10
2023-04-18T05:01:09.322Z,31.15
2023-04-18T05:03:41.447Z,30.35
2023-04-18T05:06:12.577Z,30.02
2023-04-18T05:08:42.950Z,29.48
2023-04-18T05:11:14.335Z,29.85
2023-04-18T05:13:44.713Z,30.73
2023-04-18T05:16:17.392Z,31.15
2023-04-18T05:18:47.882Z,30.35
2023-04-18T05:21:18.574Z,30.73
2023-04-18T05:23:49.293Z,31.40
2023-04-18T05:26:20.851Z,30.77
2023-04-18T05:28:52.789Z,31.65
2023-04-18T05:31:26.043Z,31.65
2023-04-18T05:33:56.960Z,31.73
2023-04-18T05:36:27.898Z,31.55
2023-04-18T05:38:58.706Z,30.35
2023-04-18T05:41:29.438Z,34.20
2023-04-18T05:44:05.333Z,31.23
2023-04-18T05:46:41.707Z,31.40
2023-04-18T05:49:12.287Z,33.75
2023-04-18T05:51:42.813Z,32.03
2023-04-18T05:54:14.588Z,31.58
2023-04-18T05:56:45.834Z,34.92
2023-04-18T05:59:16.496Z,32.70
2023-04-18T06:01:49.520Z,30.90
2023-04-18T06:04:20.928Z,32.50
2023-04-18T06:06:52.010Z,31.77
2023-04-18T06:09:22.304Z,32.30
2023-04-18T06:11:52.884Z,30.92
2023-04-18T06:14:23.420Z,31.65
2023-04-18T06:16:55.963Z,30.10
2023-04-18T06:19:27.403Z,31.75
2023-04-18T06:21:58.133Z,31.55
2023-04-18T06:24:30.761Z,32.95
2023-04-18T06:27:02.467Z,33.80
2023-04-18T06:29:33.366Z,33.17
2023-04-18T06:32:07.125Z,34.17
2023-04-18T06:34:38.533Z,33.17
2023-04-18T06:37:09.605Z,34.80
2023-04-18T06:39:43.094Z,32.33
2023-04-18T06:44:53.047Z,34.25
2023-04-18T06:47:28.659Z,34.53
2023-04-18T06:50:01.135Z,33.60
2023-04-18T06:52:35.662Z,34.00
2023-04-18T06:55:07.513Z,34.60
2023-04-18T06:57:38.274Z,34.95
2023-04-18T07:00:12.265Z,34.55
2023-04-18T07:02:46.034Z,30.40
2023-04-18T07:05:20.437Z,29.73
2023-04-18T07:07:54.738Z,28.90
2023-04-18T07:10:26.848Z,25.63
2023-04-18T07:13:00.330Z,26.90
2023-04-18T07:15:35.150Z,25.25
2023-04-18T07:18:08.013Z,26.67
2023-04-18T07:20:40.457Z,24.17
2023-04-18T07:23:11.986Z,23.15
2023-04-18T07:25:43.006Z,24.27
2023-04-18T07:28:13.856Z,25.02
2023-04-18T07:30:44.273Z,26.65
2023-04-18T07:33:16.506Z,25.17
2023-04-18T07:35:50.435Z,26.33
2023-04-18T07:38:21.717Z,24.92
2023-04-18T07:40:58.653Z,28.13
2023-04-18T07:43:30.318Z,26.05
2023-04-18T07:46:01.515Z,30.83
2023-04-18T07:48:36.144Z,26.80
2023-04-18T07:51:08.677Z,27.33
2023-04-18T07:53:43.137Z,26.38
2023-04-18T07:56:14.659Z,26.08
2023-04-18T07:58:45.686Z,28.30
2023-04-18T08:01:18.467Z,25.30
2023-04-18T08:06:21.712Z,23.95
2023-04-18T08:08:52.730Z,24.73
2023-04-18T08:11:23.120Z,26.52
2023-04-18T08:13:54.162Z,23.65
2023-04-18T08:16:25.707Z,24.90
2023-04-18T08:18:57.870Z,25.05
2023-04-18T08:21:28.378Z,27.13
2023-04-18T08:23:59.219Z,25.23
2023-04-18T08:26:29.637Z,24.02
2023-04-18T08:29:01.091Z,24.25
2023-04-18T08:31:32.858Z,24.30
2023-04-18T08:34:05.307Z,23.42
2023-04-18T08:36:36.846Z,25.52
2023-04-18T08:39:08.116Z,21.35
2023-04-18T08:41:39.378Z,23.58
2023-04-18T08:44:10.368Z,22.42
2023-04-18T08:46:40.614Z,22.92
2023-04-18T08:49:13.508Z,25.15
2023-04-18T08:51:48.783Z,24.58
2023-04-18T08:54:20.917Z,28.23
2023-04-18T08:57:06.690Z,26.40
2023-04-18T08:59:43.752Z,26.40
2023-04-18T09:02:16.420Z,26.77
2023-04-18T09:04:54.003Z,24.90
2023-04-18T09:07:32.845Z,26.38
2023-04-18T09:10:04.915Z,25.98
2023-04-18T09:12:50.412Z,25.98
2023-04-18T09:15:27.208Z,24.60
2023-04-18T09:18:00.126Z,25.27
2023-04-18T09:23:14.988Z,22.90
2023-04-18T09:25:49.029Z,25.13
2023-04-18T09:28:28.954Z,23.23
2023-04-18T09:31:09.281Z,22.48
2023-04-18T09:33:43.148Z,23.38
2023-04-18T09:36:23.478Z,23.60
2023-04-18T09:38:56.532Z,25.52
2023-04-18T09:41:28.016Z,23.80
2023-04-18T09:44:14.949Z,23.65
2023-04-18T09:46:47.559Z,22.60
2023-04-18T09:49:19.298Z,21.27
2023-04-18T09:51:53.207Z,24.50
2023-04-18T09:54:26.533Z,23.77
2023-04-18T09:56:59.032Z,24.48
2023-04-18T09:59:42.980Z,27.38
2023-04-18T10:02:21.385Z,24.48
2023-04-18T10:04:53.250Z,23.50
2023-04-18T10:07:27.460Z,25.42
2023-04-18T10:09:57.915Z,27.50
2023-04-18T10:12:30.228Z,25.35
2023-04-18T10:15:02.381Z,26.13
2023-04-18T10:18:00.227Z,27.30
2023-04-18T10:20:36.718Z,27.75
2023-04-18T10:23:40.994Z,29.95
2023-04-18T10:26:13.130Z,26.58
2023-04-18T10:28:58.386Z,27.73
2023-04-18T10:31:44.336Z,28.92
2023-04-18T10:34:18.350Z,27.20
2023-04-18T10:37:07.615Z,27.67
2023-04-18T10:40:00.508Z,27.58
2023-04-18T10:43:01.811Z,25.98
2023-04-18T10:45:36.577Z,28.75
2023-04-18T10:48:29.573Z,27.50
2023-04-18T10:51:17.749Z,26.38
2023-04-18T10:53:53.415Z,25.38
2023-04-18T10:56:26.330Z,25.35
2023-04-18T10:59:01.490Z,26.77
2023-04-18T11:01:34.446Z,26.05
2023-04-18T11:04:14.977Z,26.80
2023-04-18T11:06:51.680Z,27.55
2023-04-18T11:09:22.723Z,28.40
2023-04-18T11:12:08.030Z,25.90
2023-04-18T11:14:42.364Z,29.17
2023-04-18T11:17:21.183Z,29.00
2023-04-18T11:19:51.788Z,27.95
2023-04-18T11:22:22.644Z,28.02
2023-04-18T11:24:53.427Z,28.92
2023-04-18T11:27:27.492Z,28.90
2023-04-18T11:29:58.533Z,31.73
2023-04-18T11:32:29.360Z,31.85
2023-04-18T11:35:00.133Z,32.80
2023-04-18T11:37:31.078Z,33.33
2023-04-18T11:40:01.621Z,32.75
2023-04-18T11:42:35.607Z,31.13
2023-04-18T11:45:11.295Z,33.90
2023-04-18T11:47:44.108Z,35.15
2023-04-18T11:50:15.826Z,35.37
2023-04-18T11:52:53.138Z,36.17
2023-04-18T11:55:27.199Z,36.85
2023-04-18T11:58:00.605Z,38.97
2023-04-18T12:00:37.240Z,36.08
2023-04-18T12:03:18.942Z,37.60
2023-04-18T12:05:49.701Z,36.38
2023-04-18T12:08:22.094Z,35.40
2023-04-18T12:10:54.181Z,34.83
2023-04-18T12:13:32.816Z,34.40
2023-04-18T12:16:04.421Z,35.85
2023-04-18T12:18:35.438Z,37.88
2023-04-18T12:21:07.278Z,37.95
2023-04-18T12:23:40.545Z,38.97
2023-04-18T12:26:19.011Z,39.30
2023-04-18T12:28:54.024Z,38.38
2023-04-18T12:31:24.437Z,38.75
2023-04-18T12:33:55.013Z,34.80
2023-04-18T12:36:26.657Z,37.72
2023-04-18T12:38:57.320Z,34.42
2023-04-18T12:41:27.689Z,32.45
2023-04-18T12:44:00.046Z,36.00
2023-04-18T12:46:30.565Z,35.22
2023-04-18T12:49:01.812Z,35.22
2023-04-18T12:51:32.182Z,33.85
2023-04-18T12:54:03.273Z,34.63
2023-04-18T12:56:33.759Z,35.65
2023-04-18T12:59:05.897Z,36.70
2023-04-18T13:01:36.333Z,34.58
2023-04-18T13:04:12.564Z,34.95
2023-04-18T13:06:43.866Z,34.50
2023-04-18T13:09:15.007Z,33.58
2023-04-18T13:14:17.735Z,32.67
2023-04-18T13:16:48.871Z,32.83
2023-04-18T13:19:19.754Z,32.90
2023-04-18T13:21:50.336Z,33.58
2023-04-18T13:24:21.223Z,34.00
2023-04-18T13:26:54.333Z,30.50
2023-04-18T13:31:58.520Z,33.03
2023-04-18T13:34:29.246Z,31.38
2023-04-18T13:36:59.455Z,31.27
2023-04-18T13:39:30.157Z,31.05
2023-04-18T13:42:03.009Z,28.75
2023-04-18T13:44:36.411Z,29.58
2023-04-18T13:47:08.389Z,27.63
2023-04-18T13:49:39.171Z,25.50
2023-04-18T13:52:09.459Z,27.02
2023-04-18T13:54:41.468Z,27.63
2023-04-18T13:57:12.686Z,25.75
2023-04-18T13:59:47.425Z,24.95
2023-04-18T14:02:18.592Z,23.77
2023-04-18T14:04:49.926Z,25.95
2023-04-18T14:07:20.501Z,24.63
2023-04-18T14:09:53.735Z,22.98
2023-04-18T14:12:25.362Z,23.88
2023-04-18T14:14:58.133Z,24.10
2023-04-18T14:17:29.772Z,24.35
2023-04-18T14:20:00.866Z,22.90
2023-04-18T14:22:32.637Z,23.30
2023-04-18T14:25:04.719Z,23.85
2023-04-18T14:27:39.706Z,24.45
2023-04-18T14:30:15.053Z,24.13
2023-04-18T14:32:46.015Z,23.52
2023-04-18T14:35:16.993Z,21.63
2023-04-18T14:37:48.485Z,22.88
2023-04-18T14:40:19.446Z,21.92
2023-04-18T14:42:49.686Z,23.35
2023-04-18T14:45:23.379Z,22.23
2023-04-18T14:47:55.762Z,24.65
2023-04-18T14:50:27.072Z,24.50
2023-04-18T14:52:58.046Z,24.30
2023-04-18T14:55:28.871Z,26.00
2023-04-18T14:57:59.362Z,28.27
2023-04-18T15:00:32.584Z,23.90
2023-04-18T15:03:04.029Z,24.55
2023-04-18T15:05:35.076Z,27.55
2023-04-18T15:08:06.993Z,24.38
2023-04-18T15:10:38.229Z,24.65
2023-04-18T15:13:08.636Z,26.05
2023-04-18T15:15:41.219Z,28.00
2023-04-18T15:18:13.990Z,25.70
2023-04-18T15:20:44.597Z,24.23
2023-04-18T15:23:14.924Z,24.90
2023-04-18T15:25:46.926Z,25.25
2023-04-18T15:28:18.402Z,28.38
2023-04-18T15:30:50.317Z,27.38
2023-04-18T15:33:21.290Z,26.40
2023-04-18T15:35:52.047Z,25.08
2023-04-18T15:38:22.446Z,24.63
2023-04-18T15:40:53.150Z,24.48
2023-04-18T15:43:23.323Z,26.10
2023-04-18T15:45:55.517Z,26.00
2023-04-18T15:48:26.025Z,27.80
2023-04-18T15:50:57.007Z,24.92
2023-04-18T15:53:27.803Z,26.80
2023-04-18T15:56:01.056Z,25.77
2023-04-18T15:58:31.286Z,24.42
2023-04-18T16:01:04.510Z,24.73
2023-04-18T16:03:35.118Z,27.23
2023-04-18T16:06:06.404Z,26.98
2023-04-18T16:08:37.012Z,26.60
2023-04-18T16:11:08.556Z,26.42
2023-04-18T16:13:38.832Z,26.10
2023-04-18T16:16:11.151Z,26.27
2023-04-18T16:18:41.648Z,26.80
2023-04-18T16:21:15.485Z,25.98
2023-04-18T16:23:45.978Z,24.63
2023-04-18T16:26:16.899Z,25.70
2023-04-18T16:28:48.682Z,24.98
2023-04-18T16:31:20.785Z,28.63
2023-04-18T16:33:53.021Z,26.88
2023-04-18T16:36:23.821Z,27.75
2023-04-18T16:38:54.194Z,26.25
2023-04-18T16:41:24.974Z,27.08
2023-04-18T16:43:55.444Z,26.92
2023-04-18T16:46:31.439Z,28.15
2023-04-18T16:49:02.360Z,32.13
2023-04-18T16:51:33.924Z,31.52
2023-04-18T16:54:04.900Z,35.85
2023-04-18T16:56:38.418Z,31.63
2023-04-18T16:59:11.073Z,29.70
2023-04-18T17:01:43.577Z,29.00
2023-04-18T17:04:14.488Z,31.42
2023-04-18T17:06:45.831Z,32.08
2023-04-18T17:09:17.124Z,31.58
2023-04-18T17:11:49.118Z,31.08
2023-04-18T17:14:19.579Z,33.03
2023-04-18T17:16:53.723Z,28.65
2023-04-18T17:19:27.318Z,28.33
2023-04-18T17:21:58.227Z,30.85
2023-04-18T17:24:28.681Z,31.67
2023-04-18T17:27:01.565Z,30.48
2023-04-18T17:29:33.610Z,30.35
2023-04-18T17:32:07.214Z,29.90
2023-04-18T17:34:37.640Z,27.25
2023-04-18T17:37:08.385Z,28.60
2023-04-18T17:39:39.374Z,26.88
2023-04-18T17:42:10.780Z,30.15
2023-04-18T17:44:42.729Z,28.10
2023-04-18T17:47:14.865Z,25.73
2023-04-18T17:49:46.930Z,27.92
2023-04-18T17:52:18.084Z,27.88
2023-04-18T17:54:48.745Z,26.48
2023-04-18T17:57:19.807Z,26.25
2023-04-18T17:59:50.322Z,27.17
2023-04-18T18:02:23.633Z,27.13
2023-04-18T18:04:54.224Z,28.92
2023-04-18T18:07:24.864Z,33.35
2023-04-18T18:09:55.536Z,28.40
2023-04-18T18:12:26.426Z,27.20
2023-04-18T18:14:58.263Z,30.15
2023-04-18T18:17:30.379Z,34.28
2023-04-18T18:20:00.838Z,30.63
2023-04-18T18:22:31.769Z,27.95
2023-04-18T18:25:02.277Z,29.00
2023-04-18T18:27:33.416Z,29.33
2023-04-18T18:30:03.869Z,28.08
2023-04-18T18:32:36.219Z,25.17
2023-04-18T18:35:08.515Z,25.80
2023-04-18T18:37:39.686Z,27.00
2023-04-18T18:40:11.680Z,26.70
2023-04-18T18:42:42.697Z,25.88
2023-04-18T18:45:14.783Z,24.17
2023-04-18T18:47:46.748Z,25.52
2023-04-18T18:50:17.376Z,24.98
2023-04-18T18:52:48.150Z,24.85
2023-04-18T18:55:18.760Z,25.70
2023-04-18T18:57:49.745Z,26.77
2023-04-18T19:00:20.893Z,26.48
2023-04-18T19:02:53.321Z,26.50
2023-04-18T19:05:28.170Z,25.30
2023-04-18T19:08:00.215Z,24.67
2023-04-18T19:10:31.673Z,24.20
2023-04-18T19:13:07.341Z,25.60
2023-04-18T19:15:38.098Z,26.02
2023-04-18T19:18:11.024Z,25.42
2023-04-18T19:20:44.597Z,25.30
2023-04-18T19:23:20.931Z,24.40
2023-04-18T19:25:52.669Z,24.38
2023-04-18T19:28:26.931Z,24.92
2023-04-18T19:30:57.308Z,26.10
2023-04-18T19:33:30.460Z,23.13
2023-04-18T19:36:01.496Z,24.38
2023-04-18T19:38:34.734Z,24.40
2023-04-18T19:41:05.357Z,24.80
2023-04-18T19:43:41.158Z,26.70
2023-04-18T19:46:14.734Z,23.65
2023-04-18T19:48:47.123Z,24.45
2023-04-18T19:51:17.809Z,24.70
2023-04-18T19:53:53.339Z,25.90
2023-04-18T19:56:25.384Z,25.48
2023-04-18T19:58:58.799Z,23.85
2023-04-18T20:01:29.798Z,24.65
2023-04-18T20:04:08.653Z,23.90
2023-04-18T20:06:41.505Z,23.92
2023-04-18T20:09:16.977Z,23.55
2023-04-18T20:11:48.628Z,23.63
2023-04-18T20:14:29.316Z,23.35
2023-04-18T20:17:04.100Z,24.73
2023-04-18T20:19:37.799Z,24.30
2023-04-18T20:22:09.231Z,23.30
2023-04-18T20:24:40.414Z,23.02
2023-04-18T20:27:10.930Z,23.27
2023-04-18T20:29:41.743Z,23.08
2023-04-18T20:32:14.170Z,22.15
2023-04-18T20:34:47.307Z,22.42
2023-04-18T20:37:19.982Z,23.33
2023-04-18T20:39:50.936Z,22.77
2023-04-18T20:42:21.495Z,22.00
2023-04-18T20:44:54.963Z,22.80
2023-04-18T20:47:25.263Z,24.40
2023-04-18T20:49:57.795Z,23.60
2023-04-18T20:52:28.271Z,23.85
2023-04-18T20:54:59.168Z,23.25
2023-04-18T20:57:29.441Z,22.33
2023-04-18T21:00:00.257Z,24.70
2023-04-18T21:02:30.748Z,23.17
2023-04-18T21:05:03.172Z,23.95
2023-04-18T21:07:33.619Z,23.08
2023-04-18T21:10:04.527Z,23.25
2023-04-18T21:12:35.124Z,24.80
2023-04-18T21:15:07.029Z,23.17
2023-04-18T21:17:37.478Z,24.05
2023-04-18T21:20:12.076Z,23.55
2023-04-18T21:22:42.579Z,25.33
2023-04-18T21:25:13.388Z,23.80
2023-04-18T21:27:43.545Z,22.27
2023-04-18T21:30:15.088Z,24.20
2023-04-18T21:32:45.977Z,22.77
2023-04-18T21:35:20.296Z,22.23
2023-04-18T21:37:52.547Z,22.55
2023-04-18T21:40:23.288Z,22.10
2023-04-18T21:42:53.607Z,23.88
2023-04-18T21:45:24.798Z,21.90
2023-04-18T21:47:55.316Z,22.38
2023-04-18T21:50:27.712Z,20.77
2023-04-18T21:52:57.923Z,21.85
2023-04-18T21:55:28.823Z,19.67
2023-04-18T21:57:59.118Z,21.02
2023-04-18T22:00:30.090Z,21.00
2023-04-18T22:03:00.860Z,20.60
2023-04-18T22:05:34.999Z,19.73
2023-04-18T22:08:05.797Z,20.60
2023-04-18T22:10:37.085Z,20.23
2023-04-18T22:13:07.431Z,20.95
2023-04-18T22:15:39.947Z,19.38
2023-04-18T22:18:14.408Z,19.20
2023-04-18T22:20:47.724Z,18.00
2023-04-18T22:23:18.178Z,21.35
2023-04-18T22:25:49.029Z,20.85
2023-04-18T22:28:19.455Z,21.33
2023-04-18T22:30:50.159Z,20.48
2023-04-18T22:33:20.648Z,21.95
2023-04-18T22:35:52.833Z,21.80
2023-04-18T22:38:23.145Z,21.45
2023-04-18T22:40:53.668Z,20.85
2023-04-18T22:43:25.093Z,20.50
2023-04-18T22:45:55.831Z,18.98
2023-04-18T22:48:26.378Z,19.92
2023-04-18T22:50:58.374Z,20.30
2023-04-18T22:53:29.173Z,20.25
2023-04-18T22:55:59.751Z,21.00
2023-04-18T22:58:31.457Z,20.90
2023-04-18T23:01:01.975Z,20.92
2023-04-18T23:03:34.505Z,19.55
2023-04-18T23:06:09.204Z,21.58
2023-04-18T23:08:39.571Z,20.63
2023-04-18T23:11:10.838Z,18.73
2023-04-18T23:26:15.747Z,20.42
2023-04-18T23:28:46.459Z,20.70
2023-04-18T23:31:16.770Z,18.92
2023-04-18T23:33:47.779Z,18.58
2023-04-18T23:36:18.268Z,19.25
2023-04-18T23:38:48.693Z,18.35
2023-04-18T23:41:20.439Z,17.48
2023-04-18T23:43:50.836Z,18.05
2023-04-18T23:46:21.038Z,17.50
2023-04-18T23:48:52.257Z,18.70
2023-04-18T23:51:22.543Z,19.42
2023-04-18T23:53:53.137Z,18.40
2023-04-18T23:56:24.829Z,19.13
2023-04-18T23:58:55.321Z,18.98
